sensor_id;sensor_type;location;lat;lon;timestamp;P1;durP1;ratioP1;P2;durP2;ratioP2
11139;SDS011;5624;49.388;11.350;2024-02-15T00:01:33;5.00;;;3.53;;
11139;SDS011;5624;49.388;11.350;2024-02-15T00:03:59;6.43;;;4.27;;
11139;SDS011;5624;49.388;11.350;2024-02-15T00:06:24;7.13;;;4.60;;
11139;SDS011;5624;49.388;11.350;2024-02-15T00:08:50;7.37;;;4.97;;
11139;SDS011;5624;49.388;11.350;2024-02-15T00:11:17;5.73;;;4.37;;
11139;SDS011;5624;49.388;11.350;2024-02-15T00:13:43;6.83;;;4.93;;
11139;SDS011;5624;49.388;11.350;2024-02-15T00:16:11;5.60;;;4.63;;
11139;SDS011;5624;49.388;11.350;2024-02-15T00:18:40;5.40;;;4.63;;
11139;SDS011;5624;49.388;11.350;2024-02-15T00:21:06;7.40;;;4.73;;
11139;SDS011;5624;49.388;11.350;2024-02-15T00:23:31;4.67;;;3.83;;
11139;SDS011;5624;49.388;11.350;2024-02-15T00:26:00;6.30;;;4.03;;
11139;SDS011;5624;49.388;11.350;2024-02-15T00:28:25;6.73;;;4.50;;
11139;SDS011;5624;49.388;11.350;2024-02-15T00:30:54;6.47;;;4.70;;
11139;SDS011;5624;49.388;11.350;2024-02-15T00:33:19;6.57;;;4.67;;
11139;SDS011;5624;49.388;11.350;2024-02-15T00:35:45;6.83;;;4.40;;
11139;SDS011;5624;49.388;11.350;2024-02-15T00:38:10;5.97;;;4.80;;
11139;SDS011;5624;49.388;11.350;2024-02-15T00:40:36;4.70;;;3.67;;
11139;SDS011;5624;49.388;11.350;2024-02-15T00:43:01;6.50;;;3.87;;
11139;SDS011;5624;49.388;11.350;2024-02-15T00:45:27;6.30;;;5.00;;
11139;SDS011;5624;49.388;11.350;2024-02-15T00:47:52;5.83;;;4.47;;
11139;SDS011;5624;49.388;11.350;2024-02-15T00:50:19;6.60;;;5.10;;
11139;SDS011;5624;49.388;11.350;2024-02-15T00:52:44;6.00;;;4.60;;
11139;SDS011;5624;49.388;11.350;2024-02-15T00:55:10;6.13;;;5.33;;
11139;SDS011;5624;49.388;11.350;2024-02-15T00:57:36;6.90;;;5.00;;
11139;SDS011;5624;49.388;11.350;2024-02-15T01:00:02;6.07;;;4.97;;
11139;SDS011;5624;49.388;11.350;2024-02-15T01:02:28;5.70;;;4.87;;
11139;SDS011;5624;49.388;11.350;2024-02-15T01:04:54;5.27;;;4.77;;
11139;SDS011;5624;49.388;11.350;2024-02-15T01:07:22;5.90;;;5.03;;
11139;SDS011;5624;49.388;11.350;2024-02-15T01:09:52;5.23;;;4.47;;
11139;SDS011;5624;49.388;11.350;2024-02-15T01:12:17;6.40;;;5.10;;
11139;SDS011;5624;49.388;11.350;2024-02-15T01:14:43;6.07;;;5.40;;
11139;SDS011;5624;49.388;11.350;2024-02-15T01:17:08;5.90;;;5.30;;
11139;SDS011;5624;49.388;11.350;2024-02-15T01:19:34;6.57;;;5.40;;
11139;SDS011;5624;49.388;11.350;2024-02-15T01:22:00;6.70;;;5.90;;
11139;SDS011;5624;49.388;11.350;2024-02-15T01:24:25;6.27;;;5.67;;
11139;SDS011;5624;49.388;11.350;2024-02-15T01:26:51;6.63;;;5.00;;
11139;SDS011;5624;49.388;11.350;2024-02-15T01:29:18;7.07;;;5.80;;
11139;SDS011;5624;49.388;11.350;2024-02-15T01:31:43;7.30;;;6.07;;
11139;SDS011;5624;49.388;11.350;2024-02-15T01:34:09;6.57;;;5.87;;
11139;SDS011;5624;49.388;11.350;2024-02-15T01:36:35;6.60;;;5.80;;
11139;SDS011;5624;49.388;11.350;2024-02-15T01:39:00;7.60;;;5.13;;
11139;SDS011;5624;49.388;11.350;2024-02-15T01:41:26;9.17;;;6.37;;
11139;SDS011;5624;49.388;11.350;2024-02-15T01:43:52;7.63;;;5.70;;
11139;SDS011;5624;49.388;11.350;2024-02-15T01:46:17;6.43;;;5.47;;
11139;SDS011;5624;49.388;11.350;2024-02-15T01:48:45;6.97;;;5.47;;
11139;SDS011;5624;49.388;11.350;2024-02-15T01:51:11;7.73;;;6.23;;
11139;SDS011;5624;49.388;11.350;2024-02-15T01:53:40;6.63;;;5.90;;
11139;SDS011;5624;49.388;11.350;2024-02-15T01:56:07;7.63;;;5.77;;
11139;SDS011;5624;49.388;11.350;2024-02-15T01:58:33;6.53;;;5.90;;
11139;SDS011;5624;49.388;11.350;2024-02-15T02:00:59;6.87;;;5.90;;
11139;SDS011;5624;49.388;11.350;2024-02-15T02:03:26;7.40;;;5.60;;
11139;SDS011;5624;49.388;11.350;2024-02-15T02:05:51;6.87;;;5.73;;
11139;SDS011;5624;49.388;11.350;2024-02-15T02:08:17;6.70;;;5.70;;
11139;SDS011;5624;49.388;11.350;2024-02-15T02:10:43;7.63;;;5.90;;
11139;SDS011;5624;49.388;11.350;2024-02-15T02:13:10;11.17;;;6.97;;
11139;SDS011;5624;49.388;11.350;2024-02-15T02:15:36;6.43;;;5.80;;
11139;SDS011;5624;49.388;11.350;2024-02-15T02:18:02;8.53;;;6.70;;
11139;SDS011;5624;49.388;11.350;2024-02-15T02:20:33;7.00;;;5.77;;
11139;SDS011;5624;49.388;11.350;2024-02-15T02:25:32;7.90;;;6.00;;
11139;SDS011;5624;49.388;11.350;2024-02-15T02:27:58;8.30;;;6.20;;
11139;SDS011;5624;49.388;11.350;2024-02-15T02:30:25;7.03;;;6.20;;
11139;SDS011;5624;49.388;11.350;2024-02-15T02:32:54;6.93;;;6.10;;
11139;SDS011;5624;49.388;11.350;2024-02-15T02:35:23;6.07;;;5.47;;
11139;SDS011;5624;49.388;11.350;2024-02-15T02:37:50;6.97;;;5.70;;
11139;SDS011;5624;49.388;11.350;2024-02-15T02:40:18;6.90;;;6.00;;
11139;SDS011;5624;49.388;11.350;2024-02-15T02:42:50;7.57;;;5.60;;
11139;SDS011;5624;49.388;11.350;2024-02-15T02:45:17;8.23;;;6.13;;
11139;SDS011;5624;49.388;11.350;2024-02-15T02:47:44;7.50;;;6.20;;
11139;SDS011;5624;49.388;11.350;2024-02-15T02:50:13;8.30;;;5.60;;
11139;SDS011;5624;49.388;11.350;2024-02-15T02:52:39;7.70;;;5.90;;
11139;SDS011;5624;49.388;11.350;2024-02-15T02:55:05;8.07;;;6.47;;
11139;SDS011;5624;49.388;11.350;2024-02-15T02:57:34;8.93;;;6.30;;
11139;SDS011;5624;49.388;11.350;2024-02-15T03:00:10;6.83;;;6.17;;
11139;SDS011;5624;49.388;11.350;2024-02-15T03:02:38;7.50;;;6.40;;
11139;SDS011;5624;49.388;11.350;2024-02-15T03:05:04;6.80;;;6.00;;
11139;SDS011;5624;49.388;11.350;2024-02-15T03:07:34;7.73;;;6.90;;
11139;SDS011;5624;49.388;11.350;2024-02-15T03:10:01;7.13;;;6.30;;
11139;SDS011;5624;49.388;11.350;2024-02-15T03:12:33;6.53;;;5.87;;
11139;SDS011;5624;49.388;11.350;2024-02-15T03:15:00;8.00;;;6.50;;
11139;SDS011;5624;49.388;11.350;2024-02-15T03:17:27;7.40;;;6.33;;
11139;SDS011;5624;49.388;11.350;2024-02-15T03:19:52;9.00;;;6.43;;
11139;SDS011;5624;49.388;11.350;2024-02-15T03:22:18;8.50;;;6.03;;
11139;SDS011;5624;49.388;11.350;2024-02-15T03:24:43;6.63;;;5.53;;
11139;SDS011;5624;49.388;11.350;2024-02-15T03:27:09;7.93;;;6.07;;
11139;SDS011;5624;49.388;11.350;2024-02-15T03:29:35;6.57;;;5.73;;
11139;SDS011;5624;49.388;11.350;2024-02-15T03:32:01;6.33;;;5.67;;
11139;SDS011;5624;49.388;11.350;2024-02-15T03:34:31;6.20;;;5.60;;
11139;SDS011;5624;49.388;11.350;2024-02-15T03:36:57;6.23;;;4.37;;
11139;SDS011;5624;49.388;11.350;2024-02-15T03:39:23;6.40;;;5.53;;
11139;SDS011;5624;49.388;11.350;2024-02-15T03:41:49;7.13;;;5.47;;
11139;SDS011;5624;49.388;11.350;2024-02-15T03:44:16;6.60;;;5.27;;
11139;SDS011;5624;49.388;11.350;2024-02-15T03:46:43;6.63;;;5.93;;
11139;SDS011;5624;49.388;11.350;2024-02-15T03:49:15;8.03;;;6.00;;
11139;SDS011;5624;49.388;11.350;2024-02-15T03:51:41;7.10;;;6.40;;
11139;SDS011;5624;49.388;11.350;2024-02-15T03:54:08;7.03;;;6.33;;
11139;SDS011;5624;49.388;11.350;2024-02-15T03:56:34;9.90;;;5.90;;
11139;SDS011;5624;49.388;11.350;2024-02-15T03:59:01;8.30;;;6.50;;
11139;SDS011;5624;49.388;11.350;2024-02-15T04:01:29;8.07;;;6.20;;
11139;SDS011;5624;49.388;11.350;2024-02-15T04:03:58;7.73;;;6.17;;
11139;SDS011;5624;49.388;11.350;2024-02-15T04:06:24;9.70;;;6.67;;
11139;SDS011;5624;49.388;11.350;2024-02-15T04:08:53;6.47;;;5.87;;
11139;SDS011;5624;49.388;11.350;2024-02-15T04:11:19;7.70;;;5.73;;
11139;SDS011;5624;49.388;11.350;2024-02-15T04:13:45;8.43;;;5.80;;
11139;SDS011;5624;49.388;11.350;2024-02-15T04:16:10;7.90;;;6.30;;
11139;SDS011;5624;49.388;11.350;2024-02-15T04:18:36;7.67;;;6.07;;
11139;SDS011;5624;49.388;11.350;2024-02-15T04:21:02;7.00;;;6.30;;
11139;SDS011;5624;49.388;11.350;2024-02-15T04:23:30;6.30;;;5.63;;
11139;SDS011;5624;49.388;11.350;2024-02-15T04:25:56;8.17;;;5.67;;
11139;SDS011;5624;49.388;11.350;2024-02-15T04:28:22;10.53;;;6.63;;
11139;SDS011;5624;49.388;11.350;2024-02-15T04:30:48;7.83;;;6.30;;
11139;SDS011;5624;49.388;11.350;2024-02-15T04:33:14;8.20;;;6.37;;
11139;SDS011;5624;49.388;11.350;2024-02-15T04:35:40;8.07;;;6.50;;
11139;SDS011;5624;49.388;11.350;2024-02-15T04:38:06;7.60;;;6.07;;
11139;SDS011;5624;49.388;11.350;2024-02-15T04:40:33;6.43;;;5.47;;
11139;SDS011;5624;49.388;11.350;2024-02-15T04:42:59;7.40;;;5.80;;
11139;SDS011;5624;49.388;11.350;2024-02-15T04:45:27;6.57;;;5.80;;
11139;SDS011;5624;49.388;11.350;2024-02-15T04:47:52;6.33;;;5.73;;
11139;SDS011;5624;49.388;11.350;2024-02-15T04:50:18;6.73;;;5.60;;
11139;SDS011;5624;49.388;11.350;2024-02-15T04:52:45;7.57;;;5.27;;
11139;SDS011;5624;49.388;11.350;2024-02-15T04:55:14;7.53;;;6.00;;
11139;SDS011;5624;49.388;11.350;2024-02-15T04:57:40;7.03;;;6.33;;
11139;SDS011;5624;49.388;11.350;2024-02-15T05:00:06;8.23;;;6.70;;
11139;SDS011;5624;49.388;11.350;2024-02-15T05:02:36;7.57;;;6.67;;
11139;SDS011;5624;49.388;11.350;2024-02-15T05:05:05;8.80;;;7.50;;
11139;SDS011;5624;49.388;11.350;2024-02-15T05:07:33;9.80;;;6.80;;
11139;SDS011;5624;49.388;11.350;2024-02-15T05:09:59;6.87;;;6.03;;
11139;SDS011;5624;49.388;11.350;2024-02-15T05:12:31;7.53;;;6.73;;
11139;SDS011;5624;49.388;11.350;2024-02-15T05:14:56;6.93;;;6.27;;
11139;SDS011;5624;49.388;11.350;2024-02-15T05:17:22;8.70;;;6.67;;
11139;SDS011;5624;49.388;11.350;2024-02-15T05:19:49;8.10;;;6.60;;
11139;SDS011;5624;49.388;11.350;2024-02-15T05:22:14;8.40;;;6.40;;
11139;SDS011;5624;49.388;11.350;2024-02-15T05:24:40;7.30;;;6.60;;
11139;SDS011;5624;49.388;11.350;2024-02-15T05:27:06;6.57;;;5.87;;
11139;SDS011;5624;49.388;11.350;2024-02-15T05:29:31;7.73;;;6.30;;
11139;SDS011;5624;49.388;11.350;2024-02-15T05:32:01;6.50;;;5.90;;
11139;SDS011;5624;49.388;11.350;2024-02-15T05:34:26;10.07;;;6.50;;
11139;SDS011;5624;49.388;11.350;2024-02-15T05:36:54;7.40;;;5.57;;
11139;SDS011;5624;49.388;11.350;2024-02-15T05:39:20;7.50;;;5.90;;
11139;SDS011;5624;49.388;11.350;2024-02-15T05:41:47;6.63;;;5.93;;
11139;SDS011;5624;49.388;11.350;2024-02-15T05:44:13;7.07;;;5.60;;
11139;SDS011;5624;49.388;11.350;2024-02-15T05:46:43;6.20;;;5.60;;
11139;SDS011;5624;49.388;11.350;2024-02-15T05:49:09;6.53;;;5.40;;
11139;SDS011;5624;49.388;11.350;2024-02-15T05:51:40;6.80;;;5.93;;
11139;SDS011;5624;49.388;11.350;2024-02-15T05:54:06;6.73;;;5.97;;
11139;SDS011;5624;49.388;11.350;2024-02-15T05:56:31;6.57;;;5.50;;
11139;SDS011;5624;49.388;11.350;2024-02-15T05:58:57;8.10;;;5.03;;
11139;SDS011;5624;49.388;11.350;2024-02-15T06:01:23;6.70;;;4.70;;
11139;SDS011;5624;49.388;11.350;2024-02-15T06:03:49;9.60;;;5.07;;
11139;SDS011;5624;49.388;11.350;2024-02-15T06:06:15;6.57;;;4.70;;
11139;SDS011;5624;49.388;11.350;2024-02-15T06:08:41;6.27;;;5.17;;
11139;SDS011;5624;49.388;11.350;2024-02-15T06:11:06;6.27;;;4.70;;
11139;SDS011;5624;49.388;11.350;2024-02-15T06:13:34;6.23;;;4.40;;
11139;SDS011;5624;49.388;11.350;2024-02-15T06:16:00;8.07;;;5.43;;
11139;SDS011;5624;49.388;11.350;2024-02-15T06:18:26;7.83;;;6.10;;
11139;SDS011;5624;49.388;11.350;2024-02-15T06:20:54;5.97;;;5.37;;
11139;SDS011;5624;49.388;11.350;2024-02-15T06:23:24;6.37;;;5.70;;
11139;SDS011;5624;49.388;11.350;2024-02-15T06:25:51;7.57;;;6.50;;
11139;SDS011;5624;49.388;11.350;2024-02-15T06:28:21;9.20;;;6.57;;
11139;SDS011;5624;49.388;11.350;2024-02-15T06:31:06;7.83;;;6.50;;
11139;SDS011;5624;49.388;11.350;2024-02-15T06:33:51;6.67;;;5.73;;
11139;SDS011;5624;49.388;11.350;2024-02-15T06:36:49;6.60;;;5.90;;
11139;SDS011;5624;49.388;11.350;2024-02-15T06:39:34;8.63;;;6.47;;
11139;SDS011;5624;49.388;11.350;2024-02-15T06:42:03;7.40;;;6.60;;
11139;SDS011;5624;49.388;11.350;2024-02-15T06:44:29;7.23;;;6.20;;
11139;SDS011;5624;49.388;11.350;2024-02-15T06:46:54;8.13;;;5.73;;
11139;SDS011;5624;49.388;11.350;2024-02-15T06:49:21;7.43;;;5.47;;
11139;SDS011;5624;49.388;11.350;2024-02-15T06:51:49;7.83;;;6.77;;
11139;SDS011;5624;49.388;11.350;2024-02-15T06:54:15;7.40;;;6.53;;
11139;SDS011;5624;49.388;11.350;2024-02-15T06:56:43;7.90;;;6.97;;
11139;SDS011;5624;49.388;11.350;2024-02-15T06:59:11;8.23;;;7.37;;
11139;SDS011;5624;49.388;11.350;2024-02-15T07:01:41;8.37;;;7.53;;
11139;SDS011;5624;49.388;11.350;2024-02-15T07:04:07;10.33;;;7.80;;
11139;SDS011;5624;49.388;11.350;2024-02-15T07:06:35;8.53;;;6.70;;
11139;SDS011;5624;49.388;11.350;2024-02-15T07:09:02;8.63;;;7.73;;
11139;SDS011;5624;49.388;11.350;2024-02-15T07:11:28;9.23;;;7.70;;
11139;SDS011;5624;49.388;11.350;2024-02-15T07:13:55;7.87;;;7.07;;
11139;SDS011;5624;49.388;11.350;2024-02-15T07:16:21;8.53;;;7.20;;
11139;SDS011;5624;49.388;11.350;2024-02-15T07:18:47;11.20;;;7.67;;
11139;SDS011;5624;49.388;11.350;2024-02-15T07:21:12;7.63;;;6.60;;
11139;SDS011;5624;49.388;11.350;2024-02-15T07:23:41;7.70;;;6.90;;
11139;SDS011;5624;49.388;11.350;2024-02-15T07:26:07;8.93;;;7.17;;
11139;SDS011;5624;49.388;11.350;2024-02-15T07:28:33;9.63;;;7.97;;
11139;SDS011;5624;49.388;11.350;2024-02-15T07:30:59;9.43;;;7.97;;
11139;SDS011;5624;49.388;11.350;2024-02-15T07:33:27;11.73;;;9.57;;
11139;SDS011;5624;49.388;11.350;2024-02-15T07:35:54;9.67;;;7.93;;
11139;SDS011;5624;49.388;11.350;2024-02-15T07:38:19;9.70;;;8.43;;
11139;SDS011;5624;49.388;11.350;2024-02-15T07:40:47;9.77;;;8.33;;
11139;SDS011;5624;49.388;11.350;2024-02-15T07:43:14;8.60;;;7.70;;
11139;SDS011;5624;49.388;11.350;2024-02-15T07:45:39;8.80;;;6.93;;
11139;SDS011;5624;49.388;11.350;2024-02-15T07:48:05;7.70;;;6.37;;
11139;SDS011;5624;49.388;11.350;2024-02-15T07:50:31;8.67;;;7.00;;
11139;SDS011;5624;49.388;11.350;2024-02-15T07:52:57;9.57;;;6.40;;
11139;SDS011;5624;49.388;11.350;2024-02-15T07:55:22;10.70;;;7.03;;
11139;SDS011;5624;49.388;11.350;2024-02-15T07:57:49;7.43;;;6.30;;
11139;SDS011;5624;49.388;11.350;2024-02-15T08:00:15;8.23;;;6.20;;
11139;SDS011;5624;49.388;11.350;2024-02-15T08:02:42;7.57;;;6.03;;
11139;SDS011;5624;49.388;11.350;2024-02-15T08:05:09;8.57;;;6.30;;
11139;SDS011;5624;49.388;11.350;2024-02-15T08:07:41;9.50;;;7.07;;
11139;SDS011;5624;49.388;11.350;2024-02-15T08:10:12;7.27;;;5.93;;
11139;SDS011;5624;49.388;11.350;2024-02-15T08:12:41;8.00;;;6.10;;
11139;SDS011;5624;49.388;11.350;2024-02-15T08:15:08;7.37;;;5.73;;
11139;SDS011;5624;49.388;11.350;2024-02-15T08:17:37;6.53;;;5.60;;
11139;SDS011;5624;49.388;11.350;2024-02-15T08:20:05;7.97;;;6.47;;
11139;SDS011;5624;49.388;11.350;2024-02-15T08:22:38;9.97;;;7.40;;
11139;SDS011;5624;49.388;11.350;2024-02-15T08:25:11;10.10;;;8.87;;
11139;SDS011;5624;49.388;11.350;2024-02-15T08:27:39;9.70;;;8.10;;
11139;SDS011;5624;49.388;11.350;2024-02-15T08:30:14;10.00;;;7.17;;
11139;SDS011;5624;49.388;11.350;2024-02-15T08:32:39;9.40;;;7.27;;
11139;SDS011;5624;49.388;11.350;2024-02-15T08:35:07;7.80;;;6.77;;
11139;SDS011;5624;49.388;11.350;2024-02-15T08:37:37;6.87;;;6.17;;
11139;SDS011;5624;49.388;11.350;2024-02-15T08:40:03;16.20;;;8.07;;
11139;SDS011;5624;49.388;11.350;2024-02-15T08:42:35;10.63;;;7.40;;
11139;SDS011;5624;49.388;11.350;2024-02-15T08:45:05;8.93;;;6.70;;
11139;SDS011;5624;49.388;11.350;2024-02-15T08:47:33;8.13;;;6.47;;
11139;SDS011;5624;49.388;11.350;2024-02-15T08:50:03;8.47;;;6.53;;
11139;SDS011;5624;49.388;11.350;2024-02-15T08:52:29;9.70;;;6.67;;
11139;SDS011;5624;49.388;11.350;2024-02-15T08:54:55;9.63;;;6.63;;
11139;SDS011;5624;49.388;11.350;2024-02-15T08:57:22;6.23;;;5.63;;
11139;SDS011;5624;49.388;11.350;2024-02-15T08:59:48;9.10;;;6.30;;
11139;SDS011;5624;49.388;11.350;2024-02-15T09:02:16;7.93;;;6.17;;
11139;SDS011;5624;49.388;11.350;2024-02-15T09:04:42;7.13;;;5.67;;
11139;SDS011;5624;49.388;11.350;2024-02-15T09:07:08;6.30;;;5.20;;
11139;SDS011;5624;49.388;11.350;2024-02-15T09:09:34;7.23;;;4.83;;
11139;SDS011;5624;49.388;11.350;2024-02-15T09:12:01;6.43;;;4.77;;
11139;SDS011;5624;49.388;11.350;2024-02-15T09:14:30;6.67;;;4.50;;
11139;SDS011;5624;49.388;11.350;2024-02-15T09:16:59;6.70;;;4.87;;
11139;SDS011;5624;49.388;11.350;2024-02-15T09:19:25;6.17;;;4.70;;
11139;SDS011;5624;49.388;11.350;2024-02-15T09:21:51;5.33;;;4.27;;
11139;SDS011;5624;49.388;11.350;2024-02-15T09:24:18;6.60;;;4.37;;
11139;SDS011;5624;49.388;11.350;2024-02-15T09:26:44;5.33;;;3.87;;
11139;SDS011;5624;49.388;11.350;2024-02-15T09:29:09;7.40;;;3.70;;
11139;SDS011;5624;49.388;11.350;2024-02-15T09:31:35;5.47;;;3.90;;
11139;SDS011;5624;49.388;11.350;2024-02-15T09:34:01;8.63;;;4.13;;
11139;SDS011;5624;49.388;11.350;2024-02-15T09:36:33;5.63;;;4.00;;
11139;SDS011;5624;49.388;11.350;2024-02-15T09:39:00;5.50;;;3.70;;
11139;SDS011;5624;49.388;11.350;2024-02-15T09:41:25;6.20;;;4.43;;
11139;SDS011;5624;49.388;11.350;2024-02-15T09:43:51;6.07;;;4.50;;
11139;SDS011;5624;49.388;11.350;2024-02-15T09:46:17;6.40;;;4.30;;
11139;SDS011;5624;49.388;11.350;2024-02-15T09:48:43;5.30;;;3.87;;
11139;SDS011;5624;49.388;11.350;2024-02-15T09:51:14;5.63;;;4.10;;
11139;SDS011;5624;49.388;11.350;2024-02-15T09:53:41;7.13;;;4.30;;
11139;SDS011;5624;49.388;11.350;2024-02-15T09:56:06;6.57;;;3.90;;
11139;SDS011;5624;49.388;11.350;2024-02-15T09:58:33;6.43;;;3.50;;
11139;SDS011;5624;49.388;11.350;2024-02-15T10:01:01;5.87;;;3.67;;
11139;SDS011;5624;49.388;11.350;2024-02-15T10:03:34;6.73;;;4.13;;
11139;SDS011;5624;49.388;11.350;2024-02-15T10:06:02;7.90;;;3.70;;
11139;SDS011;5624;49.388;11.350;2024-02-15T10:08:29;7.03;;;3.13;;
11139;SDS011;5624;49.388;11.350;2024-02-15T10:11:07;5.70;;;3.70;;
11139;SDS011;5624;49.388;11.350;2024-02-15T10:13:33;5.40;;;3.20;;
11139;SDS011;5624;49.388;11.350;2024-02-15T10:16:09;6.50;;;3.30;;
11139;SDS011;5624;49.388;11.350;2024-02-15T10:18:39;6.67;;;3.00;;
11139;SDS011;5624;49.388;11.350;2024-02-15T10:21:04;6.40;;;3.63;;
11139;SDS011;5624;49.388;11.350;2024-02-15T10:23:30;4.87;;;3.53;;
11139;SDS011;5624;49.388;11.350;2024-02-15T10:25:55;5.60;;;3.80;;
11139;SDS011;5624;49.388;11.350;2024-02-15T10:28:23;6.17;;;3.50;;
11139;SDS011;5624;49.388;11.350;2024-02-15T10:30:49;5.33;;;3.40;;
11139;SDS011;5624;49.388;11.350;2024-02-15T10:33:27;5.23;;;3.70;;
11139;SDS011;5624;49.388;11.350;2024-02-15T10:36:06;4.10;;;2.97;;
11139;SDS011;5624;49.388;11.350;2024-02-15T10:38:38;5.07;;;2.90;;
11139;SDS011;5624;49.388;11.350;2024-02-15T10:41:06;5.15;;;3.22;;
11139;SDS011;5624;49.388;11.350;2024-02-15T10:43:33;10.48;;;3.42;;
11139;SDS011;5624;49.388;11.350;2024-02-15T10:46:00;5.97;;;3.13;;
11139;SDS011;5624;49.388;11.350;2024-02-15T10:48:25;8.30;;;3.00;;
11139;SDS011;5624;49.388;11.350;2024-02-15T10:50:53;4.57;;;2.60;;
11139;SDS011;5624;49.388;11.350;2024-02-15T10:53:26;5.00;;;2.30;;
11139;SDS011;5624;49.388;11.350;2024-02-15T10:58:34;6.45;;;3.25;;
11139;SDS011;5624;49.388;11.350;2024-02-15T11:01:09;5.55;;;2.78;;
11139;SDS011;5624;49.388;11.350;2024-02-15T11:03:42;4.85;;;2.83;;
11139;SDS011;5624;49.388;11.350;2024-02-15T11:06:16;7.32;;;3.45;;
11139;SDS011;5624;49.388;11.350;2024-02-15T11:08:45;5.68;;;2.75;;
11139;SDS011;5624;49.388;11.350;2024-02-15T11:11:10;6.07;;;2.58;;
11139;SDS011;5624;49.388;11.350;2024-02-15T11:13:39;4.85;;;2.53;;
11139;SDS011;5624;49.388;11.350;2024-02-15T11:16:05;6.55;;;2.97;;
11139;SDS011;5624;49.388;11.350;2024-02-15T11:18:43;6.30;;;2.72;;
11139;SDS011;5624;49.388;11.350;2024-02-15T11:21:11;3.47;;;2.13;;
11139;SDS011;5624;49.388;11.350;2024-02-15T11:23:37;6.07;;;2.08;;
11139;SDS011;5624;49.388;11.350;2024-02-15T11:26:03;6.72;;;2.10;;
11139;SDS011;5624;49.388;11.350;2024-02-15T11:30:55;3.83;;;1.75;;
11139;SDS011;5624;49.388;11.350;2024-02-15T11:33:25;5.10;;;1.90;;
11139;SDS011;5624;49.388;11.350;2024-02-15T11:38:32;5.38;;;2.00;;
11139;SDS011;5624;49.388;11.350;2024-02-15T11:46:17;4.88;;;1.80;;
11139;SDS011;5624;49.388;11.350;2024-02-15T11:48:46;3.17;;;1.60;;
11139;SDS011;5624;49.388;11.350;2024-02-15T11:51:24;5.47;;;1.60;;
11139;SDS011;5624;49.388;11.350;2024-02-15T11:54:03;5.70;;;1.25;;
11139;SDS011;5624;49.388;11.350;2024-02-15T11:59:12;2.72;;;1.42;;
11139;SDS011;5624;49.388;11.350;2024-02-15T12:01:44;6.13;;;1.17;;
11139;SDS011;5624;49.388;11.350;2024-02-15T12:04:29;3.80;;;1.33;;
11139;SDS011;5624;49.388;11.350;2024-02-15T12:07:14;2.88;;;1.00;;
11139;SDS011;5624;49.388;11.350;2024-02-15T12:09:59;0.90;;;0.80;;
11139;SDS011;5624;49.388;11.350;2024-02-15T12:12:53;2.10;;;0.80;;
11139;SDS011;5624;49.388;11.350;2024-02-15T12:15:37;1.52;;;0.90;;
11139;SDS011;5624;49.388;11.350;2024-02-15T12:18:22;2.60;;;1.58;;
11139;SDS011;5624;49.388;11.350;2024-02-15T12:21:06;3.15;;;1.23;;
11139;SDS011;5624;49.388;11.350;2024-02-15T12:23:35;3.35;;;1.50;;
11139;SDS011;5624;49.388;11.350;2024-02-15T12:26:02;2.63;;;1.45;;
11139;SDS011;5624;49.388;11.350;2024-02-15T12:28:28;2.35;;;0.90;;
11139;SDS011;5624;49.388;11.350;2024-02-15T12:30:55;2.15;;;1.30;;
11139;SDS011;5624;49.388;11.350;2024-02-15T12:33:22;4.63;;;1.45;;
11139;SDS011;5624;49.388;11.350;2024-02-15T12:35:47;4.18;;;1.20;;
11139;SDS011;5624;49.388;11.350;2024-02-15T12:38:15;4.63;;;1.38;;
11139;SDS011;5624;49.388;11.350;2024-02-15T12:40:41;3.50;;;1.52;;
11139;SDS011;5624;49.388;11.350;2024-02-15T12:43:08;2.30;;;1.25;;
11139;SDS011;5624;49.388;11.350;2024-02-15T12:45:37;3.38;;;1.27;;
11139;SDS011;5624;49.388;11.350;2024-02-15T12:48:05;4.28;;;1.77;;
11139;SDS011;5624;49.388;11.350;2024-02-15T12:50:31;2.97;;;1.15;;
11139;SDS011;5624;49.388;11.350;2024-02-15T12:52:57;2.38;;;1.05;;
11139;SDS011;5624;49.388;11.350;2024-02-15T12:55:31;3.42;;;1.60;;
11139;SDS011;5624;49.388;11.350;2024-02-15T12:57:59;4.95;;;1.33;;
11139;SDS011;5624;49.388;11.350;2024-02-15T13:00:28;5.68;;;1.48;;
11139;SDS011;5624;49.388;11.350;2024-02-15T13:02:57;3.63;;;1.00;;
11139;SDS011;5624;49.388;11.350;2024-02-15T13:05:25;2.97;;;1.27;;
11139;SDS011;5624;49.388;11.350;2024-02-15T13:07:52;6.03;;;1.80;;
11139;SDS011;5624;49.388;11.350;2024-02-15T13:10:30;3.28;;;1.55;;
11139;SDS011;5624;49.388;11.350;2024-02-15T13:12:56;2.88;;;1.02;;
11139;SDS011;5624;49.388;11.350;2024-02-15T13:15:22;1.88;;;1.15;;
11139;SDS011;5624;49.388;11.350;2024-02-15T13:17:55;1.73;;;1.00;;
11139;SDS011;5624;49.388;11.350;2024-02-15T13:20:21;4.13;;;1.85;;
11139;SDS011;5624;49.388;11.350;2024-02-15T13:23:06;5.35;;;2.08;;
11139;SDS011;5624;49.388;11.350;2024-02-15T13:25:47;6.70;;;2.45;;
11139;SDS011;5624;49.388;11.350;2024-02-15T13:28:14;2.75;;;1.48;;
11139;SDS011;5624;49.388;11.350;2024-02-15T13:30:40;7.32;;;1.20;;
11139;SDS011;5624;49.388;11.350;2024-02-15T13:33:08;3.33;;;1.48;;
11139;SDS011;5624;49.388;11.350;2024-02-15T13:35:34;3.95;;;1.77;;
11139;SDS011;5624;49.388;11.350;2024-02-15T13:38:01;3.03;;;1.00;;
11139;SDS011;5624;49.388;11.350;2024-02-15T13:40:27;3.72;;;0.90;;
11139;SDS011;5624;49.388;11.350;2024-02-15T13:42:55;2.38;;;1.23;;
11139;SDS011;5624;49.388;11.350;2024-02-15T13:45:28;4.05;;;1.35;;
11139;SDS011;5624;49.388;11.350;2024-02-15T13:47:57;2.00;;;0.80;;
11139;SDS011;5624;49.388;11.350;2024-02-15T13:50:23;6.75;;;1.42;;
11139;SDS011;5624;49.388;11.350;2024-02-15T13:52:50;2.10;;;1.20;;
11139;SDS011;5624;49.388;11.350;2024-02-15T13:55:18;2.40;;;1.20;;
11139;SDS011;5624;49.388;11.350;2024-02-15T13:57:46;4.82;;;1.08;;
11139;SDS011;5624;49.388;11.350;2024-02-15T14:00:16;2.88;;;1.15;;
11139;SDS011;5624;49.388;11.350;2024-02-15T14:02:50;5.57;;;1.42;;
11139;SDS011;5624;49.388;11.350;2024-02-15T14:05:17;2.40;;;1.25;;
11139;SDS011;5624;49.388;11.350;2024-02-15T14:07:49;3.70;;;1.40;;
11139;SDS011;5624;49.388;11.350;2024-02-15T14:10:17;1.88;;;1.10;;
11139;SDS011;5624;49.388;11.350;2024-02-15T14:12:46;2.28;;;1.05;;
11139;SDS011;5624;49.388;11.350;2024-02-15T14:15:14;3.05;;;0.98;;
11139;SDS011;5624;49.388;11.350;2024-02-15T14:17:40;2.40;;;0.93;;
11139;SDS011;5624;49.388;11.350;2024-02-15T14:20:06;6.00;;;1.30;;
11139;SDS011;5624;49.388;11.350;2024-02-15T14:22:38;3.40;;;1.25;;
11139;SDS011;5624;49.388;11.350;2024-02-15T14:25:25;1.33;;;1.17;;
11139;SDS011;5624;49.388;11.350;2024-02-15T14:27:51;2.33;;;0.98;;
11139;SDS011;5624;49.388;11.350;2024-02-15T14:30:19;2.03;;;1.27;;
11139;SDS011;5624;49.388;11.350;2024-02-15T14:33:03;4.75;;;1.77;;
11139;SDS011;5624;49.388;11.350;2024-02-15T14:35:33;6.32;;;1.30;;
11139;SDS011;5624;49.388;11.350;2024-02-15T14:38:05;5.03;;;1.20;;
11139;SDS011;5624;49.388;11.350;2024-02-15T14:40:33;2.65;;;1.13;;
11139;SDS011;5624;49.388;11.350;2024-02-15T14:43:00;1.40;;;0.95;;
11139;SDS011;5624;49.388;11.350;2024-02-15T14:45:26;2.50;;;1.02;;
11139;SDS011;5624;49.388;11.350;2024-02-15T14:47:52;2.60;;;1.30;;
11139;SDS011;5624;49.388;11.350;2024-02-15T14:50:18;2.08;;;1.00;;
11139;SDS011;5624;49.388;11.350;2024-02-15T14:52:45;5.07;;;1.50;;
11139;SDS011;5624;49.388;11.350;2024-02-15T14:55:12;2.85;;;1.50;;
11139;SDS011;5624;49.388;11.350;2024-02-15T14:57:38;1.52;;;1.20;;
11139;SDS011;5624;49.388;11.350;2024-02-15T15:00:04;1.65;;;1.38;;
11139;SDS011;5624;49.388;11.350;2024-02-15T15:02:36;2.25;;;1.30;;
11139;SDS011;5624;49.388;11.350;2024-02-15T15:05:06;3.50;;;1.20;;
11139;SDS011;5624;49.388;11.350;2024-02-15T15:07:51;2.75;;;1.20;;
11139;SDS011;5624;49.388;11.350;2024-02-15T15:10:35;3.35;;;1.42;;
11139;SDS011;5624;49.388;11.350;2024-02-15T15:13:19;2.05;;;1.42;;